sensor_id;sensor_type;location;lat;lon;timestamp;P1;durP1;ratioP1;P2;durP2;ratioP2
7919;SDS011;18778;47.610;9.776;2023-04-03T00:01:12;4.57;;;4.17;;
7919;SDS011;18778;47.610;9.776;2023-04-03T00:03:38;4.30;;;3.90;;
7919;SDS011;18778;47.610;9.776;2023-04-03T00:06:05;4.60;;;4.20;;
7919;SDS011;18778;47.610;9.776;2023-04-03T00:08:32;4.03;;;3.73;;
7919;SDS011;18778;47.610;9.776;2023-04-03T00:10:58;4.27;;;3.97;;
7919;SDS011;18778;47.610;9.776;2023-04-03T00:13:24;4.60;;;4.20;;
7919;SDS011;18778;47.610;9.776;2023-04-03T00:15:50;4.30;;;3.90;;
7919;SDS011;18778;47.610;9.776;2023-04-03T00:18:16;3.80;;;3.50;;
7919;SDS011;18778;47.610;9.776;2023-04-03T00:20:42;4.20;;;3.90;;
7919;SDS011;18778;47.610;9.776;2023-04-03T00:23:08;5.10;;;3.80;;
7919;SDS011;18778;47.610;9.776;2023-04-03T00:25:33;4.33;;;3.93;;
7919;SDS011;18778;47.610;9.776;2023-04-03T00:28:00;4.67;;;4.33;;
7919;SDS011;18778;47.610;9.776;2023-04-03T00:30:25;4.40;;;4.07;;
7919;SDS011;18778;47.610;9.776;2023-04-03T00:32:55;4.67;;;4.27;;
7919;SDS011;18778;47.610;9.776;2023-04-03T00:35:21;5.67;;;4.63;;
7919;SDS011;18778;47.610;9.776;2023-04-03T00:37:47;4.90;;;4.50;;
7919;SDS011;18778;47.610;9.776;2023-04-03T00:40:14;4.90;;;4.50;;
7919;SDS011;18778;47.610;9.776;2023-04-03T00:42:41;5.50;;;5.00;;
7919;SDS011;18778;47.610;9.776;2023-04-03T00:47:36;5.70;;;5.20;;
7919;SDS011;18778;47.610;9.776;2023-04-03T00:50:03;6.00;;;5.50;;
7919;SDS011;18778;47.610;9.776;2023-04-03T00:52:29;6.03;;;5.30;;
7919;SDS011;18778;47.610;9.776;2023-04-03T00:54:57;6.27;;;5.67;;
7919;SDS011;18778;47.610;9.776;2023-04-03T00:57:27;6.23;;;5.63;;
7919;SDS011;18778;47.610;9.776;2023-04-03T00:59:59;7.43;;;6.07;;
7919;SDS011;18778;47.610;9.776;2023-04-03T01:02:29;6.70;;;6.00;;
7919;SDS011;18778;47.610;9.776;2023-04-03T01:04:55;7.93;;;6.93;;
7919;SDS011;18778;47.610;9.776;2023-04-03T01:07:26;7.60;;;6.83;;
7919;SDS011;18778;47.610;9.776;2023-04-03T01:09:58;7.57;;;6.83;;
7919;SDS011;18778;47.610;9.776;2023-04-03T01:12:27;8.17;;;7.13;;
7919;SDS011;18778;47.610;9.776;2023-04-03T01:14:59;7.70;;;7.00;;
7919;SDS011;18778;47.610;9.776;2023-04-03T01:17:37;8.33;;;7.43;;
7919;SDS011;18778;47.610;9.776;2023-04-03T01:20:21;8.70;;;7.23;;
7919;SDS011;18778;47.610;9.776;2023-04-03T01:22:59;8.30;;;7.17;;
7919;SDS011;18778;47.610;9.776;2023-04-03T01:25:34;8.90;;;8.00;;
7919;SDS011;18778;47.610;9.776;2023-04-03T01:28:21;8.90;;;8.00;;
7919;SDS011;18778;47.610;9.776;2023-04-03T01:31:00;8.23;;;7.30;;
7919;SDS011;18778;47.610;9.776;2023-04-03T01:33:45;9.37;;;7.77;;
7919;SDS011;18778;47.610;9.776;2023-04-03T01:36:18;8.37;;;7.47;;
7919;SDS011;18778;47.610;9.776;2023-04-03T01:38:47;10.37;;;8.50;;
7919;SDS011;18778;47.610;9.776;2023-04-03T01:41:13;10.83;;;8.80;;
7919;SDS011;18778;47.610;9.776;2023-04-03T01:43:39;10.23;;;8.67;;
7919;SDS011;18778;47.610;9.776;2023-04-03T01:46:04;9.70;;;8.40;;
7919;SDS011;18778;47.610;9.776;2023-04-03T01:48:30;11.03;;;8.93;;
7919;SDS011;18778;47.610;9.776;2023-04-03T01:50:56;9.30;;;8.40;;
7919;SDS011;18778;47.610;9.776;2023-04-03T01:53:21;9.87;;;8.17;;
7919;SDS011;18778;47.610;9.776;2023-04-03T01:55:47;11.20;;;9.30;;
7919;SDS011;18778;47.610;9.776;2023-04-03T01:58:13;11.70;;;9.67;;
7919;SDS011;18778;47.610;9.776;2023-04-03T02:00:38;13.57;;;9.40;;
7919;SDS011;18778;47.610;9.776;2023-04-03T02:03:04;11.80;;;9.70;;
7919;SDS011;18778;47.610;9.776;2023-04-03T02:05:30;12.03;;;9.57;;
7919;SDS011;18778;47.610;9.776;2023-04-03T02:07:55;12.20;;;10.00;;
7919;SDS011;18778;47.610;9.776;2023-04-03T02:10:21;11.43;;;9.90;;
7919;SDS011;18778;47.610;9.776;2023-04-03T02:12:47;11.93;;;9.67;;
7919;SDS011;18778;47.610;9.776;2023-04-03T02:15:12;12.07;;;9.57;;
7919;SDS011;18778;47.610;9.776;2023-04-03T02:17:38;11.40;;;9.47;;
7919;SDS011;18778;47.610;9.776;2023-04-03T02:20:04;12.60;;;10.43;;
7919;SDS011;18778;47.610;9.776;2023-04-03T02:22:30;12.03;;;9.53;;
7919;SDS011;18778;47.610;9.776;2023-04-03T02:24:56;12.80;;;10.07;;
7919;SDS011;18778;47.610;9.776;2023-04-03T02:27:21;11.90;;;9.67;;
7919;SDS011;18778;47.610;9.776;2023-04-03T02:29:47;11.70;;;10.07;;
7919;SDS011;18778;47.610;9.776;2023-04-03T02:32:12;12.13;;;10.40;;
7919;SDS011;18778;47.610;9.776;2023-04-03T02:34:38;15.90;;;10.23;;
7919;SDS011;18778;47.610;9.776;2023-04-03T02:37:03;13.37;;;9.90;;
7919;SDS011;18778;47.610;9.776;2023-04-03T02:39:30;12.00;;;9.83;;
7919;SDS011;18778;47.610;9.776;2023-04-03T02:41:55;12.67;;;9.67;;
7919;SDS011;18778;47.610;9.776;2023-04-03T02:44:21;12.27;;;9.87;;
7919;SDS011;18778;47.610;9.776;2023-04-03T02:46:48;11.73;;;9.63;;
7919;SDS011;18778;47.610;9.776;2023-04-03T02:49:14;12.70;;;10.10;;
7919;SDS011;18778;47.610;9.776;2023-04-03T02:51:40;11.50;;;9.50;;
7919;SDS011;18778;47.610;9.776;2023-04-03T02:54:06;13.27;;;9.90;;
7919;SDS011;18778;47.610;9.776;2023-04-03T02:56:31;12.53;;;10.13;;
7919;SDS011;18778;47.610;9.776;2023-04-03T02:58:57;11.60;;;10.03;;
7919;SDS011;18778;47.610;9.776;2023-04-03T03:01:23;15.00;;;10.93;;
7919;SDS011;18778;47.610;9.776;2023-04-03T03:03:49;12.80;;;10.10;;
7919;SDS011;18778;47.610;9.776;2023-04-03T03:06:15;11.63;;;10.10;;
7919;SDS011;18778;47.610;9.776;2023-04-03T03:08:42;13.53;;;10.70;;
7919;SDS011;18778;47.610;9.776;2023-04-03T03:11:08;12.70;;;10.33;;
7919;SDS011;18778;47.610;9.776;2023-04-03T03:13:34;14.57;;;10.77;;
7919;SDS011;18778;47.610;9.776;2023-04-03T03:16:00;14.00;;;10.67;;
7919;SDS011;18778;47.610;9.776;2023-04-03T03:18:26;11.90;;;9.93;;
7919;SDS011;18778;47.610;9.776;2023-04-03T03:20:52;14.10;;;10.93;;
7919;SDS011;18778;47.610;9.776;2023-04-03T03:23:19;12.03;;;10.27;;
7919;SDS011;18778;47.610;9.776;2023-04-03T03:25:46;14.20;;;10.40;;
7919;SDS011;18778;47.610;9.776;2023-04-03T03:28:11;15.17;;;11.30;;
7919;SDS011;18778;47.610;9.776;2023-04-03T03:30:37;13.20;;;10.30;;
7919;SDS011;18778;47.610;9.776;2023-04-03T03:33:03;13.73;;;11.87;;
7919;SDS011;18778;47.610;9.776;2023-04-03T03:35:29;14.07;;;11.10;;
7919;SDS011;18778;47.610;9.776;2023-04-03T03:37:54;14.33;;;11.43;;
7919;SDS011;18778;47.610;9.776;2023-04-03T03:40:20;14.47;;;11.90;;
7919;SDS011;18778;47.610;9.776;2023-04-03T03:42:46;13.83;;;11.10;;
7919;SDS011;18778;47.610;9.776;2023-04-03T03:45:11;15.40;;;11.23;;
7919;SDS011;18778;47.610;9.776;2023-04-03T03:47:37;14.90;;;10.87;;
7919;SDS011;18778;47.610;9.776;2023-04-03T03:50:03;14.27;;;11.13;;
7919;SDS011;18778;47.610;9.776;2023-04-03T03:52:28;14.27;;;11.50;;
7919;SDS011;18778;47.610;9.776;2023-04-03T03:54:55;13.47;;;10.97;;
7919;SDS011;18778;47.610;9.776;2023-04-03T03:57:21;13.73;;;10.50;;
7919;SDS011;18778;47.610;9.776;2023-04-03T03:59:47;13.47;;;11.10;;
7919;SDS011;18778;47.610;9.776;2023-04-03T04:02:13;13.60;;;10.80;;
7919;SDS011;18778;47.610;9.776;2023-04-03T04:04:39;12.53;;;10.70;;
7919;SDS011;18778;47.610;9.776;2023-04-03T04:07:05;13.40;;;11.00;;
7919;SDS011;18778;47.610;9.776;2023-04-03T04:09:31;15.30;;;11.10;;
7919;SDS011;18778;47.610;9.776;2023-04-03T04:11:57;13.70;;;11.47;;
7919;SDS011;18778;47.610;9.776;2023-04-03T04:14:22;12.77;;;10.67;;
7919;SDS011;18778;47.610;9.776;2023-04-03T04:16:48;13.47;;;10.70;;
7919;SDS011;18778;47.610;9.776;2023-04-03T04:19:14;13.43;;;10.63;;
7919;SDS011;18778;47.610;9.776;2023-04-03T04:21:39;11.57;;;10.37;;
7919;SDS011;18778;47.610;9.776;2023-04-03T04:24:06;17.83;;;11.30;;
7919;SDS011;18778;47.610;9.776;2023-04-03T04:26:32;12.80;;;10.30;;
7919;SDS011;18778;47.610;9.776;2023-04-03T04:28:58;13.23;;;11.00;;
7919;SDS011;18778;47.610;9.776;2023-04-03T04:31:23;11.97;;;10.33;;
7919;SDS011;18778;47.610;9.776;2023-04-03T04:33:49;16.27;;;11.10;;
7919;SDS011;18778;47.610;9.776;2023-04-03T04:36:15;16.70;;;11.60;;
7919;SDS011;18778;47.610;9.776;2023-04-03T04:38:40;14.30;;;12.00;;
7919;SDS011;18778;47.610;9.776;2023-04-03T04:41:07;14.77;;;11.53;;
7919;SDS011;18778;47.610;9.776;2023-04-03T04:43:33;13.97;;;12.03;;
7919;SDS011;18778;47.610;9.776;2023-04-03T04:46:03;17.43;;;12.40;;
7919;SDS011;18778;47.610;9.776;2023-04-03T04:48:33;17.20;;;11.67;;
7919;SDS011;18778;47.610;9.776;2023-04-03T04:51:00;14.50;;;12.10;;
7919;SDS011;18778;47.610;9.776;2023-04-03T04:53:26;14.67;;;11.27;;
7919;SDS011;18778;47.610;9.776;2023-04-03T04:55:52;14.93;;;11.93;;
7919;SDS011;18778;47.610;9.776;2023-04-03T04:58:18;16.43;;;10.93;;
7919;SDS011;18778;47.610;9.776;2023-04-03T05:00:44;15.40;;;11.50;;
7919;SDS011;18778;47.610;9.776;2023-04-03T05:03:10;13.40;;;11.60;;
7919;SDS011;18778;47.610;9.776;2023-04-03T05:05:36;15.27;;;11.53;;
7919;SDS011;18778;47.610;9.776;2023-04-03T05:08:02;14.13;;;12.40;;
7919;SDS011;18778;47.610;9.776;2023-04-03T05:10:29;13.83;;;10.87;;
7919;SDS011;18778;47.610;9.776;2023-04-03T05:12:54;23.53;;;16.20;;
7919;SDS011;18778;47.610;9.776;2023-04-03T05:15:20;18.10;;;13.43;;
7919;SDS011;18778;47.610;9.776;2023-04-03T05:17:48;15.20;;;12.87;;
7919;SDS011;18778;47.610;9.776;2023-04-03T05:20:14;15.50;;;12.30;;
7919;SDS011;18778;47.610;9.776;2023-04-03T05:22:40;13.23;;;11.10;;
7919;SDS011;18778;47.610;9.776;2023-04-03T05:25:05;14.97;;;11.20;;
7919;SDS011;18778;47.610;9.776;2023-04-03T05:27:31;13.70;;;10.73;;
7919;SDS011;18778;47.610;9.776;2023-04-03T05:29:57;14.40;;;11.23;;
7919;SDS011;18778;47.610;9.776;2023-04-03T05:32:23;14.43;;;11.07;;
7919;SDS011;18778;47.610;9.776;2023-04-03T05:34:51;13.57;;;10.50;;
7919;SDS011;18778;47.610;9.776;2023-04-03T05:37:16;16.83;;;10.97;;
7919;SDS011;18778;47.610;9.776;2023-04-03T05:39:42;12.93;;;11.10;;
7919;SDS011;18778;47.610;9.776;2023-04-03T05:42:08;12.37;;;9.67;;
7919;SDS011;18778;47.610;9.776;2023-04-03T05:44:33;10.57;;;9.47;;
7919;SDS011;18778;47.610;9.776;2023-04-03T05:47:00;13.00;;;10.23;;
7919;SDS011;18778;47.610;9.776;2023-04-03T05:49:25;11.67;;;9.60;;
7919;SDS011;18778;47.610;9.776;2023-04-03T05:51:51;11.37;;;9.57;;
7919;SDS011;18778;47.610;9.776;2023-04-03T05:54:24;11.23;;;8.90;;
7919;SDS011;18778;47.610;9.776;2023-04-03T05:56:51;13.97;;;10.47;;
7919;SDS011;18778;47.610;9.776;2023-04-03T05:59:18;11.47;;;9.77;;
7919;SDS011;18778;47.610;9.776;2023-04-03T06:01:44;12.23;;;10.03;;
7919;SDS011;18778;47.610;9.776;2023-04-03T06:04:10;10.73;;;9.33;;
7919;SDS011;18778;47.610;9.776;2023-04-03T06:06:50;11.70;;;10.00;;
7919;SDS011;18778;47.610;9.776;2023-04-03T06:09:19;10.70;;;9.13;;
7919;SDS011;18778;47.610;9.776;2023-04-03T06:11:46;12.37;;;10.07;;
7919;SDS011;18778;47.610;9.776;2023-04-03T06:14:11;11.43;;;10.10;;
7919;SDS011;18778;47.610;9.776;2023-04-03T06:16:38;9.80;;;8.80;;
7919;SDS011;18778;47.610;9.776;2023-04-03T06:19:04;10.10;;;8.80;;
7919;SDS011;18778;47.610;9.776;2023-04-03T06:21:31;12.83;;;9.27;;
7919;SDS011;18778;47.610;9.776;2023-04-03T06:23:56;13.00;;;9.00;;
7919;SDS011;18778;47.610;9.776;2023-04-03T06:26:22;11.87;;;9.60;;
7919;SDS011;18778;47.610;9.776;2023-04-03T06:28:48;11.00;;;9.50;;
7919;SDS011;18778;47.610;9.776;2023-04-03T06:31:14;11.00;;;9.23;;
7919;SDS011;18778;47.610;9.776;2023-04-03T06:33:39;9.87;;;8.40;;
7919;SDS011;18778;47.610;9.776;2023-04-03T06:36:05;10.67;;;9.53;;
7919;SDS011;18778;47.610;9.776;2023-04-03T06:38:32;28.00;;;17.00;;
7919;SDS011;18778;47.610;9.776;2023-04-03T06:40:58;12.13;;;9.60;;
7919;SDS011;18778;47.610;9.776;2023-04-03T06:43:25;12.80;;;9.50;;
7919;SDS011;18778;47.610;9.776;2023-04-03T06:45:51;10.67;;;8.77;;
7919;SDS011;18778;47.610;9.776;2023-04-03T06:48:17;9.20;;;8.17;;
7919;SDS011;18778;47.610;9.776;2023-04-03T06:50:42;10.30;;;9.10;;
7919;SDS011;18778;47.610;9.776;2023-04-03T06:53:08;9.50;;;8.50;;
7919;SDS011;18778;47.610;9.776;2023-04-03T06:55:35;10.70;;;8.70;;
7919;SDS011;18778;47.610;9.776;2023-04-03T06:58:01;9.73;;;7.90;;
7919;SDS011;18778;47.610;9.776;2023-04-03T07:00:28;10.43;;;8.23;;
7919;SDS011;18778;47.610;9.776;2023-04-03T07:02:55;8.50;;;7.60;;
7919;SDS011;18778;47.610;9.776;2023-04-03T07:05:22;8.87;;;7.97;;
7919;SDS011;18778;47.610;9.776;2023-04-03T07:07:48;12.67;;;8.80;;
7919;SDS011;18778;47.610;9.776;2023-04-03T07:10:15;9.73;;;8.10;;
7919;SDS011;18778;47.610;9.776;2023-04-03T07:12:41;8.37;;;7.53;;
7919;SDS011;18778;47.610;9.776;2023-04-03T07:15:07;9.00;;;8.10;;
7919;SDS011;18778;47.610;9.776;2023-04-03T07:17:34;9.47;;;8.47;;
7919;SDS011;18778;47.610;9.776;2023-04-03T07:20:00;8.87;;;7.43;;
7919;SDS011;18778;47.610;9.776;2023-04-03T07:22:26;8.83;;;7.73;;
7919;SDS011;18778;47.610;9.776;2023-04-03T07:24:52;9.07;;;6.97;;
7919;SDS011;18778;47.610;9.776;2023-04-03T07:27:20;7.97;;;7.17;;
7919;SDS011;18778;47.610;9.776;2023-04-03T07:29:48;8.50;;;7.60;;
7919;SDS011;18778;47.610;9.776;2023-04-03T07:32:17;8.53;;;7.23;;
7919;SDS011;18778;47.610;9.776;2023-04-03T07:34:42;9.33;;;7.77;;
7919;SDS011;18778;47.610;9.776;2023-04-03T07:37:08;8.23;;;7.33;;
7919;SDS011;18778;47.610;9.776;2023-04-03T07:39:34;7.17;;;6.47;;
7919;SDS011;18778;47.610;9.776;2023-04-03T07:42:00;8.10;;;7.17;;
7919;SDS011;18778;47.610;9.776;2023-04-03T07:44:27;7.60;;;6.80;;
7919;SDS011;18778;47.610;9.776;2023-04-03T07:46:53;8.10;;;7.27;;
7919;SDS011;18778;47.610;9.776;2023-04-03T07:49:21;7.10;;;6.40;;
7919;SDS011;18778;47.610;9.776;2023-04-03T07:51:49;8.03;;;7.23;;
7919;SDS011;18778;47.610;9.776;2023-04-03T07:54:14;7.97;;;7.17;;
7919;SDS011;18778;47.610;9.776;2023-04-03T07:56:40;8.57;;;6.80;;
7919;SDS011;18778;47.610;9.776;2023-04-03T07:59:07;8.53;;;7.63;;
7919;SDS011;18778;47.610;9.776;2023-04-03T08:01:34;8.43;;;7.53;;
7919;SDS011;18778;47.610;9.776;2023-04-03T08:04:00;11.23;;;8.67;;
7919;SDS011;18778;47.610;9.776;2023-04-03T08:06:26;7.30;;;6.60;;
7919;SDS011;18778;47.610;9.776;2023-04-03T08:08:54;6.90;;;6.30;;
7919;SDS011;18778;47.610;9.776;2023-04-03T08:11:19;6.77;;;6.17;;
7919;SDS011;18778;47.610;9.776;2023-04-03T08:13:46;7.30;;;6.27;;
7919;SDS011;18778;47.610;9.776;2023-04-03T08:16:12;7.70;;;6.90;;
7919;SDS011;18778;47.610;9.776;2023-04-03T08:18:42;7.33;;;6.63;;
7919;SDS011;18778;47.610;9.776;2023-04-03T08:21:08;7.93;;;7.13;;
7919;SDS011;18778;47.610;9.776;2023-04-03T08:23:35;7.33;;;6.53;;
7919;SDS011;18778;47.610;9.776;2023-04-03T08:26:06;8.27;;;6.70;;
7919;SDS011;18778;47.610;9.776;2023-04-03T08:28:32;7.07;;;6.37;;
7919;SDS011;18778;47.610;9.776;2023-04-03T08:31:02;7.70;;;6.90;;
7919;SDS011;18778;47.610;9.776;2023-04-03T08:33:30;7.67;;;6.90;;
7919;SDS011;18778;47.610;9.776;2023-04-03T08:35:55;7.13;;;6.43;;
7919;SDS011;18778;47.610;9.776;2023-04-03T08:38:21;6.77;;;6.07;;
7919;SDS011;18778;47.610;9.776;2023-04-03T08:40:47;6.77;;;5.70;;
7919;SDS011;18778;47.610;9.776;2023-04-03T08:43:29;7.43;;;6.03;;
7919;SDS011;18778;47.610;9.776;2023-04-03T08:45:57;6.57;;;5.87;;
7919;SDS011;18778;47.610;9.776;2023-04-03T08:48:36;7.83;;;6.33;;
7919;SDS011;18778;47.610;9.776;2023-04-03T08:51:17;6.57;;;5.90;;
7919;SDS011;18778;47.610;9.776;2023-04-03T08:53:48;6.43;;;5.83;;
7919;SDS011;18778;47.610;9.776;2023-04-03T08:56:31;8.07;;;6.07;;
7919;SDS011;18778;47.610;9.776;2023-04-03T08:58:59;7.63;;;5.97;;
7919;SDS011;18778;47.610;9.776;2023-04-03T09:01:35;7.30;;;6.53;;
7919;SDS011;18778;47.610;9.776;2023-04-03T09:04:15;7.13;;;6.43;;
7919;SDS011;18778;47.610;9.776;2023-04-03T09:06:49;8.50;;;7.67;;
7919;SDS011;18778;47.610;9.776;2023-04-03T09:15:02;7.90;;;7.10;;
7919;SDS011;18778;47.610;9.776;2023-04-03T09:17:41;8.10;;;7.03;;
7919;SDS011;18778;47.610;9.776;2023-04-03T09:20:25;8.60;;;6.97;;
7919;SDS011;18778;47.610;9.776;2023-04-03T09:25:49;7.20;;;6.50;;
7919;SDS011;18778;47.610;9.776;2023-04-03T09:28:18;7.43;;;6.73;;
7919;SDS011;18778;47.610;9.776;2023-04-03T09:30:44;8.03;;;7.23;;
7919;SDS011;18778;47.610;9.776;2023-04-03T09:33:10;8.27;;;7.47;;
7919;SDS011;18778;47.610;9.776;2023-04-03T09:35:37;8.43;;;7.37;;
7919;SDS011;18778;47.610;9.776;2023-04-03T09:40:38;8.17;;;7.07;;
7919;SDS011;18778;47.610;9.776;2023-04-03T09:43:23;7.77;;;6.97;;
7919;SDS011;18778;47.610;9.776;2023-04-03T09:45:54;8.10;;;6.97;;
7919;SDS011;18778;47.610;9.776;2023-04-03T09:48:21;7.47;;;6.67;;
7919;SDS011;18778;47.610;9.776;2023-04-03T09:50:53;7.60;;;6.80;;
7919;SDS011;18778;47.610;9.776;2023-04-03T09:53:41;6.80;;;6.17;;
7919;SDS011;18778;47.610;9.776;2023-04-03T09:58:47;6.97;;;6.10;;
7919;SDS011;18778;47.610;9.776;2023-04-03T10:04:03;7.73;;;6.47;;
7919;SDS011;18778;47.610;9.776;2023-04-03T10:06:45;6.97;;;6.23;;
7919;SDS011;18778;47.610;9.776;2023-04-03T10:09:24;6.47;;;5.87;;
7919;SDS011;18778;47.610;9.776;2023-04-03T10:12:12;6.70;;;6.00;;
7919;SDS011;18778;47.610;9.776;2023-04-03T10:14:40;6.93;;;5.70;;
7919;SDS011;18778;47.610;9.776;2023-04-03T10:20:09;6.23;;;5.63;;
7919;SDS011;18778;47.610;9.776;2023-04-03T10:25:49;6.00;;;5.40;;
7919;SDS011;18778;47.610;9.776;2023-04-03T10:31:51;6.30;;;5.70;;
7919;SDS011;18778;47.610;9.776;2023-04-03T10:39:57;5.67;;;5.17;;
7919;SDS011;18778;47.610;9.776;2023-04-03T10:42:43;5.20;;;4.70;;
7919;SDS011;18778;47.610;9.776;2023-04-03T10:45:27;5.47;;;4.97;;
7919;SDS011;18778;47.610;9.776;2023-04-03T10:53:44;5.17;;;4.67;;
7919;SDS011;18778;47.610;9.776;2023-04-03T10:56:31;4.87;;;4.37;;
7919;SDS011;18778;47.610;9.776;2023-04-03T11:01:38;5.50;;;4.63;;
7919;SDS011;18778;47.610;9.776;2023-04-03T11:04:07;4.97;;;4.43;;
7919;SDS011;18778;47.610;9.776;2023-04-03T11:06:36;5.30;;;4.57;;
7919;SDS011;18778;47.610;9.776;2023-04-03T11:09:18;4.37;;;3.97;;
7919;SDS011;18778;47.610;9.776;2023-04-03T11:11:51;5.20;;;4.80;;
7919;SDS011;18778;47.610;9.776;2023-04-03T11:14:35;4.40;;;4.00;;
7919;SDS011;18778;47.610;9.776;2023-04-03T11:17:19;4.03;;;3.73;;
7919;SDS011;18778;47.610;9.776;2023-04-03T11:22:39;4.30;;;3.90;;
7919;SDS011;18778;47.610;9.776;2023-04-03T11:27:49;3.90;;;3.60;;
7919;SDS011;18778;47.610;9.776;2023-04-03T11:30:20;4.40;;;3.53;;
7919;SDS011;18778;47.610;9.776;2023-04-03T11:33:15;4.57;;;3.73;;
7919;SDS011;18778;47.610;9.776;2023-04-03T11:35:50;3.13;;;2.93;;
7919;SDS011;18778;47.610;9.776;2023-04-03T11:38:23;3.60;;;3.30;;
7919;SDS011;18778;47.610;9.776;2023-04-03T11:40:54;3.63;;;3.33;;
7919;SDS011;18778;47.610;9.776;2023-04-03T11:43:23;4.13;;;3.67;;
7919;SDS011;18778;47.610;9.776;2023-04-03T11:50:53;3.37;;;3.07;;
7919;SDS011;18778;47.610;9.776;2023-04-03T11:53:28;3.90;;;3.60;;
7919;SDS011;18778;47.610;9.776;2023-04-03T11:56:43;3.40;;;3.20;;
7919;SDS011;18778;47.610;9.776;2023-04-03T12:01:47;3.20;;;3.00;;
7919;SDS011;18778;47.610;9.776;2023-04-03T12:04:18;3.27;;;3.07;;
7919;SDS011;18778;47.610;9.776;2023-04-03T12:14:55;5.17;;;3.60;;
7919;SDS011;18778;47.610;9.776;2023-04-03T12:17:36;3.53;;;3.23;;
7919;SDS011;18778;47.610;9.776;2023-04-03T12:20:06;3.80;;;3.50;;
7919;SDS011;18778;47.610;9.776;2023-04-03T12:23:07;3.20;;;2.90;;
7919;SDS011;18778;47.610;9.776;2023-04-03T12:25:49;4.03;;;3.73;;
7919;SDS011;18778;47.610;9.776;2023-04-03T12:28:15;3.40;;;3.20;;
7919;SDS011;18778;47.610;9.776;2023-04-03T12:30:41;4.67;;;3.77;;
7919;SDS011;18778;47.610;9.776;2023-04-03T12:36:33;5.07;;;3.50;;
7919;SDS011;18778;47.610;9.776;2023-04-03T12:39:14;3.93;;;3.63;;
7919;SDS011;18778;47.610;9.776;2023-04-03T12:42:12;4.63;;;3.97;;
7919;SDS011;18778;47.610;9.776;2023-04-03T12:45:02;4.27;;;3.87;;
7919;SDS011;18778;47.610;9.776;2023-04-03T12:47:46;4.90;;;4.40;;
7919;SDS011;18778;47.610;9.776;2023-04-03T12:53:04;4.30;;;3.90;;
7919;SDS011;18778;47.610;9.776;2023-04-03T12:55:42;4.23;;;3.83;;
7919;SDS011;18778;47.610;9.776;2023-04-03T12:58:14;4.10;;;3.80;;
7919;SDS011;18778;47.610;9.776;2023-04-03T13:00:58;4.50;;;4.10;;
7919;SDS011;18778;47.610;9.776;2023-04-03T13:03:44;4.00;;;3.70;;
7919;SDS011;18778;47.610;9.776;2023-04-03T13:06:22;4.23;;;3.93;;
7919;SDS011;18778;47.610;9.776;2023-04-03T13:08:52;4.07;;;3.77;;
7919;SDS011;18778;47.610;9.776;2023-04-03T13:11:23;4.30;;;3.90;;
7919;SDS011;18778;47.610;9.776;2023-04-03T13:13:58;3.90;;;3.60;;
7919;SDS011;18778;47.610;9.776;2023-04-03T13:16:25;4.57;;;3.70;;
7919;SDS011;18778;47.610;9.776;2023-04-03T13:18:52;3.90;;;3.60;;
7919;SDS011;18778;47.610;9.776;2023-04-03T13:21:19;4.27;;;3.80;;
7919;SDS011;18778;47.610;9.776;2023-04-03T13:23:58;4.30;;;3.90;;
7919;SDS011;18778;47.610;9.776;2023-04-03T13:26:28;4.30;;;3.90;;
7919;SDS011;18778;47.610;9.776;2023-04-03T13:28:57;4.30;;;3.83;;
7919;SDS011;18778;47.610;9.776;2023-04-03T13:31:31;4.63;;;4.23;;
7919;SDS011;18778;47.610;9.776;2023-04-03T13:34:03;4.23;;;3.93;;
7919;SDS011;18778;47.610;9.776;2023-04-03T13:36:36;4.47;;;4.07;;
7919;SDS011;18778;47.610;9.776;2023-04-03T13:41:41;3.57;;;3.33;;
7919;SDS011;18778;47.610;9.776;2023-04-03T13:44:17;5.13;;;4.63;;
7919;SDS011;18778;47.610;9.776;2023-04-03T13:46:45;3.80;;;3.50;;
7919;SDS011;18778;47.610;9.776;2023-04-03T13:49:22;3.47;;;3.27;;
7919;SDS011;18778;47.610;9.776;2023-04-03T13:51:48;3.60;;;3.30;;
7919;SDS011;18778;47.610;9.776;2023-04-03T13:56:54;4.13;;;3.83;;
7919;SDS011;18778;47.610;9.776;2023-04-03T13:59:31;4.07;;;3.67;;
7919;SDS011;18778;47.610;9.776;2023-04-03T14:04:29;4.00;;;3.70;;
7919;SDS011;18778;47.610;9.776;2023-04-03T14:06:57;4.10;;;3.70;;
7919;SDS011;18778;47.610;9.776;2023-04-03T14:09:25;3.70;;;3.40;;
7919;SDS011;18778;47.610;9.776;2023-04-03T14:11:55;4.10;;;3.70;;
7919;SDS011;18778;47.610;9.776;2023-04-03T14:14:30;3.57;;;3.27;;
7919;SDS011;18778;47.610;9.776;2023-04-03T14:16:59;4.80;;;3.83;;
7919;SDS011;18778;47.610;9.776;2023-04-03T14:19:28;5.37;;;3.47;;
7919;SDS011;18778;47.610;9.776;2023-04-03T14:21:56;3.90;;;3.60;;
7919;SDS011;18778;47.610;9.776;2023-04-03T14:24:22;4.53;;;4.13;;
7919;SDS011;18778;47.610;9.776;2023-04-03T14:26:50;5.00;;;4.07;;
7919;SDS011;18778;47.610;9.776;2023-04-03T14:29:18;4.73;;;3.90;;
7919;SDS011;18778;47.610;9.776;2023-04-03T14:31:44;5.67;;;3.80;;
7919;SDS011;18778;47.610;9.776;2023-04-03T14:34:12;4.00;;;3.60;;
7919;SDS011;18778;47.610;9.776;2023-04-03T14:36:38;4.30;;;4.00;;
7919;SDS011;18778;47.610;9.776;2023-04-03T14:39:06;5.90;;;4.67;;
7919;SDS011;18778;47.610;9.776;2023-04-03T14:41:33;8.37;;;4.87;;
7919;SDS011;18778;47.610;9.776;2023-04-03T14:43:59;4.13;;;3.83;;
7919;SDS011;18778;47.610;9.776;2023-04-03T14:46:27;4.30;;;4.00;;
7919;SDS011;18778;47.610;9.776;2023-04-03T14:48:54;5.13;;;4.00;;
7919;SDS011;18778;47.610;9.776;2023-04-03T14:51:20;4.30;;;3.80;;
7919;SDS011;18778;47.610;9.776;2023-04-03T14:53:46;4.27;;;3.87;;
7919;SDS011;18778;47.610;9.776;2023-04-03T14:58:39;4.30;;;4.00;;
7919;SDS011;18778;47.610;9.776;2023-04-03T15:01:04;5.03;;;4.53;;
7919;SDS011;18778;47.610;9.776;2023-04-03T15:03:30;4.67;;;4.10;;
7919;SDS011;18778;47.610;9.776;2023-04-03T15:05:55;4.17;;;3.87;;
7919;SDS011;18778;47.610;9.776;2023-04-03T15:08:25;4.53;;;4.13;;
7919;SDS011;18778;47.610;9.776;2023-04-03T15:10:54;5.83;;;4.73;;
7919;SDS011;18778;47.610;9.776;2023-04-03T15:13:21;4.87;;;4.10;;
7919;SDS011;18778;47.610;9.776;2023-04-03T15:15:47;4.57;;;4.17;;
7919;SDS011;18778;47.610;9.776;2023-04-03T15:18:18;4.77;;;4.27;;
7919;SDS011;18778;47.610;9.776;2023-04-03T15:20:49;4.73;;;4.23;;
7919;SDS011;18778;47.610;9.776;2023-04-03T15:23:15;5.10;;;4.60;;
7919;SDS011;18778;47.610;9.776;2023-04-03T15:25:45;5.07;;;4.53;;
7919;SDS011;18778;47.610;9.776;2023-04-03T15:28:22;4.50;;;4.10;;
7919;SDS011;18778;47.610;9.776;2023-04-03T15:30:55;5.37;;;4.50;;
7919;SDS011;18778;47.610;9.776;2023-04-03T15:33:21;4.47;;;4.07;;
7919;SDS011;18778;47.610;9.776;2023-04-03T15:35:47;5.43;;;4.67;;
7919;SDS011;18778;47.610;9.776;2023-04-03T15:38:13;8.30;;;4.73;;
7919;SDS011;18778;47.610;9.776;2023-04-03T15:40:39;5.90;;;5.30;;
7919;SDS011;18778;47.610;9.776;2023-04-03T15:43:05;5.30;;;4.40;;
7919;SDS011;18778;47.610;9.776;2023-04-03T15:45:32;4.70;;;4.20;;
7919;SDS011;18778;47.610;9.776;2023-04-03T15:48:00;4.40;;;4.00;;
7919;SDS011;18778;47.610;9.776;2023-04-03T15:50:27;4.63;;;3.87;;
7919;SDS011;18778;47.610;9.776;2023-04-03T15:52:53;3.90;;;3.60;;
7919;SDS011;18778;47.610;9.776;2023-04-03T15:55:24;4.30;;;3.87;;
7919;SDS011;18778;47.610;9.776;2023-04-03T15:57:51;4.57;;;4.17;;
7919;SDS011;18778;47.610;9.776;2023-04-03T16:00:17;4.43;;;4.03;;
7919;SDS011;18778;47.610;9.776;2023-04-03T16:02:43;4.00;;;3.63;;
7919;SDS011;18778;47.610;9.776;2023-04-03T16:05:10;4.27;;;3.87;;
7919;SDS011;18778;47.610;9.776;2023-04-03T16:07:40;6.37;;;4.87;;
7919;SDS011;18778;47.610;9.776;2023-04-03T16:10:06;4.33;;;3.63;;
7919;SDS011;18778;47.610;9.776;2023-04-03T16:12:33;4.83;;;4.00;;
7919;SDS011;18778;47.610;9.776;2023-04-03T16:14:58;4.50;;;4.10;;
7919;SDS011;18778;47.610;9.776;2023-04-03T16:17:25;4.70;;;4.40;;
7919;SDS011;18778;47.610;9.776;2023-04-03T16:19:52;4.70;;;4.30;;
7919;SDS011;18778;47.610;9.776;2023-04-03T16:22:19;5.17;;;4.67;;
7919;SDS011;18778;47.610;9.776;2023-04-03T16:24:44;4.60;;;4.20;;